Time;durP1;ratioP1;P1;durP2;ratioP2;P2;SDS_P1;SDS_P2;PMS_P1;PMS_P2;Temp;Humidity;BMP_temperature;BMP_pressure;BME280_temperature;BME280_humidity;BME280_pressure;Samples;Min_cycle;Max_cycle;Signal;HPM_P1;HPM_P2
2021/03/22 00:01:40;;;;;;;15.45;1.83;;;21.80;32.60;;;;;;5067687;28;20182;-74
2021/03/22 00:04:06;;;;;;;10.52;1.73;;;21.80;32.70;;;;;;5088517;28;20028;-74
2021/03/22 00:06:32;;;;;;;10.88;1.73;;;21.70;33.20;;;;;;5090829;28;20024;-73
2021/03/22 00:08:57;;;;;;;9.15;2.30;;;21.70;32.60;;;;;;5093592;28;20024;-74
2021/03/22 00:11:23;;;;;;;10.52;1.98;;;21.70;32.60;;;;;;5073252;28;20147;-74
2021/03/22 00:13:48;;;;;;;10.55;2.00;;;21.70;32.60;;;;;;5086370;28;20558;-74
2021/03/22 00:16:14;;;;;;;11.93;2.08;;;21.70;32.60;;;;;;5088250;28;20024;-74
2021/03/22 00:18:40;;;;;;;10.77;1.63;;;21.70;32.50;;;;;;5057336;28;20066;-74
2021/03/22 00:21:07;;;;;;;9.32;1.80;;;21.70;32.60;;;;;;5088612;28;20039;-75
2021/03/22 00:23:33;;;;;;;12.77;1.95;;;21.70;32.60;;;;;;5091085;28;20024;-74
2021/03/22 00:25:59;;;;;;;13.73;1.80;;;21.70;32.60;;;;;;5072809;28;20487;-74
2021/03/22 00:28:25;;;;;;;9.45;1.90;;;21.70;32.50;;;;;;5071918;28;20024;-75
2021/03/22 00:30:50;;;;;;;12.20;2.17;;;21.70;32.50;;;;;;5026515;28;20055;-74
2021/03/22 00:33:17;;;;;;;6.22;1.83;;;21.70;33.20;;;;;;5067293;28;20028;-75
2021/03/22 00:35:43;;;;;;;11.80;2.30;;;21.70;32.50;;;;;;5070426;28;20166;-75
2021/03/22 00:38:08;;;;;;;15.90;2.10;;;21.60;32.50;;;;;;5068261;28;20122;-69
2021/03/22 00:40:36;;;;;;;8.27;1.98;;;21.60;32.50;;;;;;5051788;28;20044;-68
2021/03/22 00:43:02;;;;;;;14.82;2.00;;;21.60;32.50;;;;;;5070700;28;20024;-68
2021/03/22 00:45:28;;;;;;;11.48;1.80;;;21.60;32.60;;;;;;5087504;28;20039;-74
2021/03/22 00:47:53;;;;;;;11.30;1.95;;;21.60;32.60;;;;;;5089166;28;20103;-75
2021/03/22 00:50:34;;;;;;;13.20;2.65;;;21.60;32.70;;;;;;5053020;28;20423;-74
2021/03/22 00:53:13;;;;;;;11.93;2.03;;;21.60;32.70;;;;;;5069426;28;20032;-76
2021/03/22 00:55:38;;;;;;;12.65;2.03;;;21.60;32.70;;;;;;5074982;28;20021;-75
2021/03/22 00:58:04;;;;;;;11.05;1.92;;;21.60;32.80;;;;;;5078571;28;20047;-75
2021/03/22 01:00:41;;;;;;;13.00;2.17;;;21.60;32.80;;;;;;5068621;28;20040;-75
2021/03/22 01:03:09;;;;;;;10.48;1.92;;;21.50;32.80;;;;;;5071024;28;20032;-75
2021/03/22 01:05:35;;;;;;;12.82;1.95;;;21.50;32.80;;;;;;5064697;28;21039;-75
2021/03/22 01:08:00;;;;;;;12.82;1.90;;;21.50;32.90;;;;;;5057045;28;20127;-69
2021/03/22 01:10:43;;;;;;;6.88;1.55;;;21.50;32.90;;;;;;5069635;28;20099;-69
2021/03/22 01:13:16;;;;;;;10.07;1.60;;;21.50;32.90;;;;;;5069239;28;20020;-69
2021/03/22 01:15:42;;;;;;;7.20;2.00;;;21.40;32.90;;;;;;5073997;28;20028;-69
2021/03/22 01:18:07;;;;;;;9.85;2.10;;;21.40;32.90;;;;;;5071744;28;20020;-69
2021/03/22 01:20:39;;;;;;;11.18;2.08;;;21.40;32.90;;;;;;5073409;28;20028;-69
2021/03/22 01:23:05;;;;;;;8.18;1.95;;;21.40;32.90;;;;;;5056616;28;20369;-69
2021/03/22 01:25:31;;;;;;;6.43;1.70;;;21.40;33.00;;;;;;5072849;28;20037;-68
2021/03/22 01:27:57;;;;;;;13.00;2.28;;;21.40;33.00;;;;;;5068119;28;20056;-68
2021/03/22 01:30:26;;;;;;;12.23;1.80;;;21.40;33.00;;;;;;5068198;28;20052;-69
2021/03/22 01:32:51;;;;;;;9.45;2.03;;;21.40;33.00;;;;;;5062579;28;20137;-68
2021/03/22 01:35:17;;;;;;;10.73;1.92;;;21.40;33.00;;;;;;5083636;28;20563;-69
2021/03/22 01:37:43;;;;;;;9.52;1.70;;;21.40;33.00;;;;;;5083669;28;20028;-69
2021/03/22 01:40:56;;;;;;;10.35;2.20;;;21.30;32.90;;;;;;5052401;28;20069;-75
2021/03/22 01:43:29;;;;;;;15.85;2.35;;;21.30;32.90;;;;;;4984840;28;20045;-76
2021/03/22 01:45:54;;;;;;;13.70;1.85;;;21.30;33.00;;;;;;4978976;28;20037;-75
2021/03/22 01:48:20;;;;;;;13.32;2.15;;;21.30;33.00;;;;;;4970959;28;20038;-75
2021/03/22 01:50:45;;;;;;;7.93;1.98;;;21.30;33.00;;;;;;4967387;28;20030;-74
2021/03/22 01:53:11;;;;;;;8.95;1.77;;;21.30;33.00;;;;;;4970808;28;20392;-75
2021/03/22 01:56:12;;;;;;;13.90;1.98;;;21.30;33.00;;;;;;4990920;28;20101;-74
2021/03/22 01:58:37;;;;;;;16.45;1.77;;;21.20;33.00;;;;;;4978606;28;20062;-74
2021/03/22 02:01:03;;;;;;;16.05;2.33;;;21.20;33.00;;;;;;4984118;28;20101;-74
2021/03/22 02:03:28;;;;;;;9.13;1.88;;;21.20;33.00;;;;;;4980894;28;20038;-74
2021/03/22 02:05:54;;;;;;;11.27;2.40;;;21.20;33.10;;;;;;4986222;28;20061;-74
2021/03/22 02:08:22;;;;;;;11.57;2.08;;;21.20;33.10;;;;;;4981329;28;20031;-74
2021/03/22 02:10:48;;;;;;;14.07;2.08;;;21.20;33.10;;;;;;4975400;28;20081;-68
2021/03/22 02:13:14;;;;;;;10.35;1.90;;;21.20;33.00;;;;;;4956915;28;20413;-69
2021/03/22 02:15:40;;;;;;;9.93;2.22;;;21.20;33.00;;;;;;4970389;28;20050;-68
2021/03/22 02:18:22;;;;;;;8.15;2.22;;;21.30;33.00;;;;;;4980612;28;20030;-69
2021/03/22 02:20:51;;;;;;;10.63;2.13;;;21.20;33.00;;;;;;5047161;28;20115;-69
2021/03/22 02:23:58;;;;;;;10.65;2.42;;;21.20;32.90;;;;;;5064480;28;20407;-68
2021/03/22 02:26:35;;;;;;;;;;;21.20;32.90;;;;;;4966709;28;20683;-69
2021/03/22 02:29:23;;;;;;;13.18;2.15;;;21.20;32.90;;;;;;4959687;28;19911;-68
2021/03/22 02:31:48;;;;;;;10.88;2.30;;;21.20;32.80;;;;;;4947784;28;20099;-69
2021/03/22 02:34:37;;;;;;;11.80;2.47;;;21.20;32.90;;;;;;4958954;28;20034;-68
2021/03/22 02:37:07;;;;;;;15.65;2.50;;;21.20;32.90;;;;;;4867316;29;20056;-69
2021/03/22 02:40:03;;;;;;;11.20;2.10;;;21.20;33.00;;;;;;4883829;29;20109;-69
2021/03/22 02:42:50;;;;;;;10.32;2.13;;;21.20;33.00;;;;;;4909891;29;20123;-69
2021/03/22 02:45:27;;;;;;;9.57;2.47;;;21.20;33.00;;;;;;4926439;29;20144;-68
2021/03/22 02:47:53;;;;;;;11.77;2.88;;;21.20;33.00;;;;;;4892483;29;20045;-73
2021/03/22 02:50:23;;;;;;;10.10;2.53;;;21.20;33.10;;;;;;4905267;29;20041;-73
2021/03/22 02:52:57;;;;;;;11.70;2.97;;;21.10;33.00;;;;;;4909649;29;20032;-74
2021/03/22 02:55:53;;;;;;;11.70;2.88;;;21.20;33.10;;;;;;4902479;29;20131;-74
2021/03/22 02:58:19;;;;;;;10.85;2.53;;;21.10;33.10;;;;;;4910282;29;20024;-74
2021/03/22 03:01:04;;;;;;;13.10;2.80;;;21.10;33.10;;;;;;4894801;29;20127;-73
2021/03/22 03:03:31;;;;;;;15.82;3.20;;;21.10;33.10;;;;;;4957671;28;20046;-68
2021/03/22 03:05:56;;;;;;;12.57;2.85;;;21.10;33.10;;;;;;4974667;28;20533;-68
2021/03/22 03:08:33;;;;;;;11.88;2.72;;;21.10;33.10;;;;;;4983421;28;20057;-74
2021/03/22 03:10:59;;;;;;;10.25;2.72;;;21.10;33.10;;;;;;4972809;28;20505;-74
2021/03/22 03:13:24;;;;;;;13.27;3.38;;;21.10;33.10;;;;;;4993787;28;20080;-73
2021/03/22 03:15:50;;;;;;;12.50;2.88;;;21.00;33.10;;;;;;5048940;28;20459;-74
2021/03/22 03:18:16;;;;;;;11.68;2.70;;;21.00;33.20;;;;;;5067385;28;20115;-74
2021/03/22 03:20:41;;;;;;;12.02;3.28;;;21.10;33.30;;;;;;5064085;28;20092;-74
2021/03/22 03:23:07;;;;;;;15.15;2.80;;;21.00;33.20;;;;;;5052359;28;20484;-77
2021/03/22 03:25:33;;;;;;;12.52;2.88;;;21.00;33.20;;;;;;5053222;28;20037;-75
2021/03/22 03:27:58;;;;;;;14.13;3.67;;;21.00;33.20;;;;;;5051830;28;20508;-76
2021/03/22 03:30:29;;;;;;;11.40;3.38;;;21.00;33.30;;;;;;5038944;28;20037;-68
2021/03/22 03:32:55;;;;;;;12.57;3.22;;;21.00;33.30;;;;;;5069051;28;20032;-68
2021/03/22 03:35:26;;;;;;;11.55;3.30;;;21.00;33.30;;;;;;5061533;28;20024;-68
2021/03/22 03:37:52;;;;;;;16.38;3.20;;;20.90;33.30;;;;;;5079778;28;20086;-68
2021/03/22 03:40:21;;;;;;;12.73;3.42;;;20.90;33.90;;;;;;5071854;28;20040;-68
2021/03/22 03:42:47;;;;;;;8.90;3.22;;;20.90;33.30;;;;;;5104286;28;20471;-68
2021/03/22 03:45:13;;;;;;;13.02;3.85;;;20.90;33.40;;;;;;5089026;28;20038;-68
2021/03/22 03:47:42;;;;;;;12.57;3.10;;;20.90;33.40;;;;;;5090153;28;20039;-68
2021/03/22 03:50:13;;;;;;;13.35;3.70;;;20.90;33.40;;;;;;5087734;28;20028;-68
2021/03/22 03:52:38;;;;;;;10.00;3.65;;;20.90;34.10;;;;;;5086758;28;20369;-68
2021/03/22 03:55:05;;;;;;;17.17;3.58;;;20.90;33.40;;;;;;5089450;28;20036;-69
2021/03/22 03:57:31;;;;;;;16.83;3.63;;;20.90;33.50;;;;;;5083121;28;20030;-69
2021/03/22 03:59:56;;;;;;;15.18;4.15;;;20.90;33.50;;;;;;5089985;28;20024;-70
2021/03/22 04:02:22;;;;;;;15.90;3.45;;;20.90;33.50;;;;;;5086723;28;20040;-70
2021/03/22 04:04:47;;;;;;;13.30;4.18;;;20.90;33.50;;;;;;5086353;28;20435;-68
2021/03/22 04:07:13;;;;;;;12.95;4.18;;;20.80;33.50;;;;;;5092205;28;20055;-69
2021/03/22 04:09:39;;;;;;;13.75;3.78;;;20.80;33.40;;;;;;5085059;28;20043;-68
2021/03/22 04:12:19;;;;;;;16.15;4.03;;;20.90;33.50;;;;;;5085342;28;20040;-69
2021/03/22 04:14:45;;;;;;;14.90;3.40;;;20.90;33.50;;;;;;5086982;28;20020;-68
2021/03/22 04:17:11;;;;;;;12.13;3.83;;;20.90;33.40;;;;;;5087272;28;20028;-68
2021/03/22 04:19:36;;;;;;;11.25;3.90;;;20.90;33.40;;;;;;5088104;28;20028;-68
2021/03/22 04:22:02;;;;;;;18.95;2.70;;;20.90;33.40;;;;;;5088242;28;20486;-68
2021/03/22 04:24:27;;;;;;;19.60;4.82;;;20.90;33.40;;;;;;5088251;28;20447;-76
2021/03/22 04:26:53;;;;;;;14.38;3.97;;;20.90;33.40;;;;;;5086158;28;20082;-76
2021/03/22 04:29:18;;;;;;;16.85;4.63;;;20.90;33.40;;;;;;5087999;28;20098;-76
2021/03/22 04:31:44;;;;;;;11.75;3.83;;;20.90;33.40;;;;;;5094144;28;20035;-68
2021/03/22 04:34:11;;;;;;;13.05;4.38;;;20.90;33.40;;;;;;5075487;28;20028;-68
2021/03/22 04:36:37;;;;;;;14.35;3.58;;;20.90;33.40;;;;;;5072438;28;20078;-68
2021/03/22 04:39:04;;;;;;;12.45;4.25;;;20.90;33.40;;;;;;5086465;28;20036;-68
2021/03/22 04:41:30;;;;;;;14.23;3.85;;;20.90;33.40;;;;;;5096974;28;20028;-67
2021/03/22 04:43:55;;;;;;;15.30;4.38;;;20.80;33.40;;;;;;5091256;28;20024;-68
2021/03/22 04:46:24;;;;;;;11.27;3.80;;;20.90;34.10;;;;;;5087829;28;20085;-68
2021/03/22 04:48:49;;;;;;;13.25;4.07;;;20.80;33.50;;;;;;5080546;28;20499;-68
2021/03/22 04:51:15;;;;;;;17.33;4.65;;;20.80;33.50;;;;;;5099990;28;20166;-68
2021/03/22 04:53:40;;;;;;;16.05;5.00;;;20.80;33.50;;;;;;5086277;28;20510;-68
2021/03/22 04:56:08;;;;;;;17.05;4.57;;;20.80;33.60;;;;;;5087409;28;20028;-68
2021/03/22 04:58:36;;;;;;;14.82;4.47;;;20.80;33.60;;;;;;5085742;28;20065;-69
2021/03/22 05:01:03;;;;;;;2.67;0.45;;;20.80;33.60;;;;;;5086641;28;20028;-68
2021/03/22 05:03:28;;;;;;;0.38;0.17;;;20.80;34.20;;;;;;5086683;28;20024;-68
2021/03/22 05:05:54;;;;;;;0.28;0.28;;;20.80;33.60;;;;;;5085512;28;20042;-76
2021/03/22 05:08:21;;;;;;;0.52;0.30;;;20.70;33.70;;;;;;5071772;28;20094;-77
2021/03/22 05:10:47;;;;;;;2.85;0.30;;;20.80;33.80;;;;;;5054244;28;20055;-77
2021/03/22 05:13:14;;;;;;;0.38;0.20;;;20.80;34.00;;;;;;5070375;28;20105;-76
2021/03/22 05:15:40;;;;;;;0.15;0.15;;;20.80;34.10;;;;;;5070052;28;20773;-74
2021/03/22 05:18:13;;;;;;;3.25;0.82;;;20.80;34.10;;;;;;5068492;28;20123;-73
2021/03/22 05:20:43;;;;;;;4.47;0.40;;;20.80;34.10;;;;;;5087471;28;20258;-74
2021/03/22 05:23:20;;;;;;;0.28;0.20;;;20.90;34.00;;;;;;5088791;28;20095;-74
2021/03/22 05:25:46;;;;;;;0.28;0.20;;;21.00;34.00;;;;;;5069154;28;20053;-74
2021/03/22 05:29:01;;;;;;;3.35;0.50;;;21.10;33.90;;;;;;5069681;28;20039;-73
2021/03/22 05:31:27;;;;;;;0.60;0.43;;;21.10;33.70;;;;;;5088248;28;20123;-74
2021/03/22 05:33:53;;;;;;;0.82;0.35;;;21.30;33.70;;;;;;5090266;28;20099;-74
2021/03/22 05:36:19;;;;;;;0.65;0.63;;;21.30;33.50;;;;;;5078896;28;20127;-74
2021/03/22 05:38:44;;;;;;;1.33;0.75;;;21.40;34.20;;;;;;5084183;28;20111;-73
2021/03/22 05:41:16;;;;;;;1.65;0.40;;;21.50;33.40;;;;;;5083607;28;20039;-73
2021/03/22 05:43:42;;;;;;;1.63;0.40;;;21.50;33.30;;;;;;5061551;28;20027;-74
2021/03/22 05:46:42;;;;;;;1.02;0.68;;;21.50;33.20;;;;;;5088069;28;20028;-69
2021/03/22 05:49:41;;;;;;;1.25;0.30;;;21.50;33.20;;;;;;5043154;28;20123;-69
2021/03/22 05:52:12;;;;;;;1.08;0.15;;;21.50;33.20;;;;;;5045720;28;21473;-70
2021/03/22 05:54:41;;;;;;;0.40;0.40;;;21.50;33.10;;;;;;5045806;28;20606;-69
2021/03/22 05:57:19;;;;;;;0.10;0.10;;;21.50;33.10;;;;;;5033991;28;20052;-69
2021/03/22 05:59:46;;;;;;;0.93;0.73;;;21.50;33.10;;;;;;5014373;28;20124;-69
2021/03/22 06:02:30;;;;;;;0.55;0.47;;;21.60;33.10;;;;;;5028495;28;20032;-69
2021/03/22 06:05:09;;;;;;;1.83;1.00;;;21.60;33.10;;;;;;5042507;28;20507;-69
2021/03/22 06:07:39;;;;;;;0.45;0.15;;;21.60;33.10;;;;;;5037771;28;20479;-68
2021/03/22 06:10:16;;;;;;;3.75;0.70;;;21.60;33.10;;;;;;5036001;28;20048;-69
2021/03/22 06:12:55;;;;;;;6.57;0.50;;;21.60;33.10;;;;;;5043869;28;20038;-68
2021/03/22 06:15:35;;;;;;;0.85;0.60;;;21.50;33.00;;;;;;5046375;28;20211;-68
2021/03/22 06:18:21;;;;;;;0.20;0.15;;;21.50;33.00;;;;;;5029055;28;20128;-69
2021/03/22 06:20:47;;;;;;;;;;;21.50;33.10;;;;;;5041509;28;20064;-69
2021/03/22 06:23:33;;;;;;;0.73;0.40;;;21.50;33.10;;;;;;5047974;28;20438;-74
2021/03/22 06:25:59;;;;;;;1.00;0.43;;;21.50;33.20;;;;;;5086841;28;20039;-69
2021/03/22 06:28:27;;;;;;;1.80;0.75;;;21.50;33.20;;;;;;5090824;28;20032;-68
2021/03/22 06:31:06;;;;;;;0.17;0.17;;;21.50;33.30;;;;;;5084908;28;20376;-68
2021/03/22 06:33:40;;;;;;;4.32;0.60;;;21.50;33.30;;;;;;5074577;28;20029;-68
2021/03/22 06:36:06;;;;;;;0.77;0.50;;;21.50;33.40;;;;;;5096540;27;20036;-68
2021/03/22 06:38:32;;;;;;;0.08;0.08;;;21.50;33.30;;;;;;5075637;28;20503;-68
2021/03/22 06:40:57;;;;;;;0.22;0.10;;;21.50;33.40;;;;;;5096905;28;20020;-68
2021/03/22 06:43:24;;;;;;;0.30;0.20;;;21.50;33.30;;;;;;5068364;28;20076;-68
2021/03/22 06:45:51;;;;;;;0.52;0.40;;;21.50;33.20;;;;;;5072978;28;20028;-68
2021/03/22 06:48:24;;;;;;;1.08;0.47;;;21.60;33.20;;;;;;5071352;28;20036;-68
2021/03/22 06:50:52;;;;;;;1.02;0.55;;;21.60;33.20;;;;;;5071318;28;20024;-70
2021/03/22 06:53:38;;;;;;;2.00;0.75;;;21.60;33.10;;;;;;5051602;28;20135;-71
2021/03/22 06:56:18;;;;;;;;;;;21.60;33.00;;;;;;5090870;28;20016;-71
2021/03/22 06:58:43;;;;;;;1.75;0.75;;;21.70;33.10;;;;;;5067187;28;19912;-69
2021/03/22 07:01:23;;;;;;;1.17;0.63;;;21.70;33.10;;;;;;5065171;28;20105;-68
2021/03/22 07:03:50;;;;;;;1.42;0.80;;;21.70;33.00;;;;;;5070916;28;20055;-69
2021/03/22 07:06:17;;;;;;;0.77;0.45;;;21.80;32.90;;;;;;5077362;28;20040;-70
2021/03/22 07:08:43;;;;;;;7.07;0.73;;;21.80;32.90;;;;;;5051095;28;20072;-69
2021/03/22 07:11:11;;;;;;;0.35;0.25;;;21.80;32.90;;;;;;5065050;28;20111;-69
2021/03/22 07:13:37;;;;;;;0.70;0.32;;;21.80;33.00;;;;;;5062710;28;20024;-70
2021/03/22 07:16:18;;;;;;;0.85;0.40;;;21.80;32.90;;;;;;5067582;28;20035;-70
2021/03/22 07:19:04;;;;;;;0.40;0.40;;;21.80;32.90;;;;;;5058064;28;20017;-70
2021/03/22 07:21:29;;;;;;;1.40;0.30;;;21.80;32.90;;;;;;5086772;28;20034;-70
2021/03/22 07:24:03;;;;;;;0.20;0.20;;;21.80;32.90;;;;;;5070405;28;20059;-71
2021/03/22 07:26:46;;;;;;;0.35;0.35;;;21.80;33.00;;;;;;5094575;28;20438;-71
2021/03/22 07:29:45;;;;;;;0.10;0.10;;;21.80;33.00;;;;;;5071914;28;20069;-70
2021/03/22 07:32:48;;;;;;;4.97;0.22;;;21.80;33.00;;;;;;5066508;28;20021;-71
2021/03/22 07:35:51;;;;;;;3.10;1.15;;;21.80;33.10;;;;;;5073612;28;20479;-72
2021/03/22 07:38:37;;;;;;;0.68;0.32;;;21.80;33.00;;;;;;5086376;28;20063;-69
2021/03/22 07:41:28;;;;;;;0.10;0.10;;;21.80;33.00;;;;;;5075926;28;20028;-70
2021/03/22 07:44:30;;;;;;;0.30;0.30;;;21.80;33.10;;;;;;5081237;28;20055;-69
2021/03/22 07:47:33;;;;;;;0.35;0.30;;;21.80;33.10;;;;;;5081972;28;20032;-78
2021/03/22 07:50:08;;;;;;;6.70;0.28;;;21.80;33.10;;;;;;5080182;28;20031;-70
2021/03/22 07:53:02;;;;;;;0.20;0.20;;;21.80;33.10;;;;;;5059725;28;20430;-70
2021/03/22 07:55:39;;;;;;;2.45;0.77;;;21.80;33.10;;;;;;5059330;28;20573;-69
2021/03/22 07:58:50;;;;;;;2.03;0.90;;;21.80;33.10;;;;;;5076280;28;20123;-70
2021/03/22 08:01:53;;;;;;;2.45;1.10;;;21.80;33.10;;;;;;5059958;28;20068;-70
2021/03/22 08:04:41;;;;;;;4.80;1.38;;;21.80;33.10;;;;;;5075145;28;20024;-70
2021/03/22 08:07:18;;;;;;;2.40;0.88;;;21.80;33.10;;;;;;5087428;28;20032;-69
2021/03/22 08:10:34;;;;;;;0.10;0.10;;;21.80;33.00;;;;;;5093846;28;20123;-69
2021/03/22 08:13:15;;;;;;;1.55;0.68;;;21.80;32.90;;;;;;5048068;28;20041;-70
2021/03/22 08:16:12;;;;;;;3.03;0.93;;;21.80;33.00;;;;;;5038785;28;20132;-70
2021/03/22 08:18:41;;;;;;;0.80;0.30;;;21.80;33.10;;;;;;5042915;28;20024;-69
2021/03/22 08:21:13;;;;;;;0.75;0.45;;;21.80;33.10;;;;;;5047941;28;20627;-69
2021/03/22 08:23:54;;;;;;;0.57;0.57;;;21.80;33.20;;;;;;5027701;28;20424;-69
2021/03/22 08:26:24;;;;;;;1.00;0.52;;;21.80;33.30;;;;;;5050274;28;20163;-69
2021/03/22 08:28:52;;;;;;;2.20;0.63;;;21.80;33.30;;;;;;5030043;28;20028;-69
2021/03/22 08:31:25;;;;;;;0.93;0.90;;;21.80;33.30;;;;;;5060597;28;20032;-69
2021/03/22 08:33:55;;;;;;;0.63;0.55;;;21.80;33.40;;;;;;5015409;28;20481;-69
2021/03/22 08:36:40;;;;;;;0.25;0.10;;;21.80;33.40;;;;;;5016194;28;20146;-79
2021/03/22 08:39:13;;;;;;;0.20;0.20;;;21.80;33.40;;;;;;4962231;28;20042;-79
2021/03/22 08:42:13;;;;;;;3.58;0.70;;;21.80;33.30;;;;;;4971087;28;20122;-79
2021/03/22 08:44:42;;;;;;;1.95;0.35;;;21.80;33.30;;;;;;4996356;28;20049;-78
2021/03/22 08:50:17;;;;;;;0.40;0.40;;;21.80;33.30;;;;;;4984665;28;20417;-79
2021/03/22 08:53:12;;;;;;;0.40;0.40;;;21.80;33.30;;;;;;4995068;28;20044;-78
2021/03/22 08:55:47;;;;;;;0.88;0.60;;;21.80;33.40;;;;;;5002456;28;20022;-79
2021/03/22 08:58:26;;;;;;;0.50;0.33;;;21.80;33.30;;;;;;5015251;28;20413;-78
2021/03/22 09:00:53;;;;;;;0.35;0.35;;;21.90;33.40;;;;;;5002068;28;20285;-78
2021/03/22 09:03:30;;;;;;;1.35;1.20;;;21.80;33.40;;;;;;4987438;28;20122;-78
2021/03/22 09:06:17;;;;;;;2.95;0.77;;;21.80;33.40;;;;;;4986386;28;20210;-78
2021/03/22 09:08:54;;;;;;;0.20;0.20;;;21.80;33.40;;;;;;5003981;28;20029;-78
2021/03/22 09:11:29;;;;;;;0.60;0.47;;;21.80;33.40;;;;;;5023555;28;20029;-79
2021/03/22 09:13:59;;;;;;;0.10;0.10;;;21.80;33.40;;;;;;5015287;28;20612;-79
2021/03/22 09:16:25;;;;;;;1.90;0.63;;;21.90;33.40;;;;;;5044353;28;20081;-78
2021/03/22 09:19:09;;;;;;;1.80;0.80;;;21.90;33.40;;;;;;5091304;28;20028;-78
2021/03/22 09:21:38;;;;;;;4.20;0.73;;;21.90;33.40;;;;;;5091930;28;20526;-79
2021/03/22 09:24:23;;;;;;;2.85;0.45;;;21.90;33.40;;;;;;5070842;28;20041;-79
2021/03/22 09:26:58;;;;;;;1.65;0.68;;;21.90;33.40;;;;;;5052514;28;20035;-77
2021/03/22 09:29:30;;;;;;;0.10;0.10;;;21.90;33.40;;;;;;5059862;28;20031;-78
2021/03/22 09:31:56;;;;;;;3.83;0.35;;;21.90;33.30;;;;;;5086231;28;20024;-78
2021/03/22 09:34:21;;;;;;;0.20;0.20;;;21.90;33.60;;;;;;5066939;28;20032;-78
2021/03/22 09:36:48;;;;;;;0.10;0.10;;;21.90;33.40;;;;;;5091528;28;20025;-78
2021/03/22 09:39:42;;;;;;;0.47;0.40;;;21.90;33.40;;;;;;5040040;28;20055;-78
2021/03/22 09:42:15;;;;;;;0.60;0.35;;;21.90;33.40;;;;;;5091968;28;20027;-77
2021/03/22 09:44:53;;;;;;;1.55;0.60;;;22.00;33.40;;;;;;5063446;28;20503;-78
2021/03/22 09:47:20;;;;;;;0.17;0.10;;;21.90;33.40;;;;;;5108811;28;20510;-78
2021/03/22 09:50:15;;;;;;;0.85;0.30;;;21.90;33.40;;;;;;5046273;28;20044;-78
2021/03/22 09:53:01;;;;;;;0.40;0.40;;;21.90;33.50;;;;;;5059541;28;20032;-78
2021/03/22 09:55:27;;;;;;;;;;;21.90;33.50;;;;;;5079366;28;20032;-78
2021/03/22 09:57:56;;;;;;;0.20;0.20;;;21.90;33.60;;;;;;5079304;28;19914;-78
2021/03/22 10:00:33;;;;;;;0.60;0.30;;;21.90;33.60;;;;;;5049102;28;20362;-78
2021/03/22 10:03:28;;;;;;;0.00;0.00;;;21.90;33.60;;;;;;5085541;28;20024;-70
2021/03/22 10:05:56;;;;;;;0.30;0.13;;;21.90;33.60;;;;;;5010336;28;20057;-69
2021/03/22 10:08:23;;;;;;;1.25;0.50;;;21.90;33.70;;;;;;5019458;28;20034;-70
2021/03/22 10:10:54;;;;;;;1.85;0.70;;;21.90;33.70;;;;;;5001346;28;20042;-70
2021/03/22 10:13:28;;;;;;;0.50;0.50;;;21.80;33.60;;;;;;4996054;28;20534;-70
2021/03/22 10:15:55;;;;;;;0.52;0.20;;;21.90;33.70;;;;;;4985319;28;20035;-69
2021/03/22 10:18:38;;;;;;;0.20;0.20;;;21.90;33.70;;;;;;4987639;28;20030;-69
2021/03/22 10:21:19;;;;;;;0.63;0.63;;;21.90;33.70;;;;;;5013393;28;20052;-70
2021/03/22 10:23:59;;;;;;;0.28;0.22;;;21.90;33.70;;;;;;4984938;28;20046;-70
2021/03/22 10:26:38;;;;;;;2.92;0.40;;;21.90;33.70;;;;;;4999751;28;20056;-69
2021/03/22 10:29:30;;;;;;;1.23;0.32;;;21.80;33.70;;;;;;4989395;28;20123;-69
2021/03/22 10:32:00;;;;;;;0.82;0.35;;;21.90;33.80;;;;;;4993048;28;20077;-69
2021/03/22 10:34:28;;;;;;;0.50;0.40;;;22.00;33.70;;;;;;5001998;28;20085;-70
2021/03/22 10:37:04;;;;;;;1.27;0.70;;;22.10;33.60;;;;;;4981743;28;20077;-69
2021/03/22 10:39:34;;;;;;;1.40;0.57;;;22.10;33.50;;;;;;5005736;28;20052;-69
2021/03/22 10:42:01;;;;;;;0.10;0.10;;;22.20;33.40;;;;;;4999150;28;20063;-69
2021/03/22 10:44:30;;;;;;;7.32;0.77;;;22.20;33.40;;;;;;5067571;28;20067;-69
2021/03/22 10:47:10;;;;;;;2.63;0.63;;;22.20;33.30;;;;;;5085569;28;20035;-69
2021/03/22 10:49:35;;;;;;;2.97;0.50;;;22.30;33.40;;;;;;5071982;28;20023;-69
2021/03/22 10:52:03;;;;;;;4.13;1.33;;;22.30;33.40;;;;;;5055515;28;20036;-70
2021/03/22 10:54:43;;;;;;;2.08;0.80;;;22.30;33.40;;;;;;5089443;28;20602;-72
2021/03/22 10:57:36;;;;;;;9.00;1.15;;;22.30;33.40;;;;;;5074011;28;20028;-71
2021/03/22 11:00:32;;;;;;;12.63;2.45;;;22.40;33.70;;;;;;5003564;28;20096;-72
2021/03/22 11:02:58;;;;;;;18.23;6.40;;;22.40;33.80;;;;;;5010658;28;20034;-73
2021/03/22 11:05:29;;;;;;;10.38;2.25;;;22.40;33.80;;;;;;4995387;28;20297;-72
2021/03/22 11:08:04;;;;;;;2.45;1.75;;;22.50;33.70;;;;;;4993869;28;20037;-74
2021/03/22 11:10:35;;;;;;;6.73;1.53;;;22.40;33.80;;;;;;4993404;28;20050;-71
2021/03/22 11:13:01;;;;;;;1.27;0.70;;;22.50;33.90;;;;;;4982419;28;20197;-72
2021/03/22 11:15:37;;;;;;;4.47;1.65;;;22.50;33.90;;;;;;4993370;28;20125;-76
2021/03/22 11:18:05;;;;;;;12.80;1.20;;;22.50;33.90;;;;;;5007168;28;20042;-76
2021/03/22 11:20:30;;;;;;;2.25;1.20;;;22.60;33.80;;;;;;4985303;28;20116;-76
2021/03/22 11:23:25;;;;;;;3.25;1.45;;;22.50;33.60;;;;;;4986724;28;20538;-76
2021/03/22 11:25:50;;;;;;;2.08;0.85;;;22.50;33.50;;;;;;4999843;28;20018;-76
2021/03/22 11:28:19;;;;;;;2.42;1.40;;;22.50;33.40;;;;;;5005926;28;20041;-76
2021/03/22 11:30:53;;;;;;;1.80;0.57;;;22.40;33.30;;;;;;5018280;28;20037;-76
2021/03/22 11:33:29;;;;;;;1.33;0.52;;;22.40;33.30;;;;;;5012064;28;20081;-76
2021/03/22 11:36:09;;;;;;;4.15;0.50;;;22.40;33.30;;;;;;5008824;28;20034;-76
2021/03/22 11:38:55;;;;;;;0.65;0.55;;;22.40;33.30;;;;;;5060105;28;20112;-75
2021/03/22 11:41:35;;;;;;;2.17;0.50;;;22.40;33.20;;;;;;5064050;28;20086;-76
2021/03/22 11:44:07;;;;;;;0.00;0.00;;;22.40;33.20;;;;;;5076248;28;20032;-75
2021/03/22 11:46:33;;;;;;;10.77;0.98;;;22.40;33.20;;;;;;5093711;28;20046;-76
2021/03/22 11:48:58;;;;;;;0.30;0.22;;;22.40;33.20;;;;;;5059116;28;20543;-76
2021/03/22 11:51:27;;;;;;;0.90;0.38;;;22.40;33.10;;;;;;5074691;28;20039;-76
2021/03/22 11:54:06;;;;;;;0.22;0.22;;;22.40;33.10;;;;;;5074277;28;20012;-75
2021/03/22 11:56:36;;;;;;;1.20;0.47;;;22.40;33.10;;;;;;5077098;28;20020;-76
2021/03/22 11:59:09;;;;;;;0.52;0.38;;;22.40;33.10;;;;;;5075957;28;20019;-75
2021/03/22 12:01:34;;;;;;;0.80;0.47;;;22.40;33.10;;;;;;5078378;28;20032;-75
2021/03/22 12:04:03;;;;;;;3.15;0.60;;;22.40;33.10;;;;;;5076639;28;20028;-76
2021/03/22 12:06:28;;;;;;;2.75;0.70;;;22.40;33.10;;;;;;5092374;28;20442;-75
2021/03/22 12:08:55;;;;;;;0.88;0.25;;;22.40;33.10;;;;;;5075766;28;20020;-75
2021/03/22 12:11:27;;;;;;;0.60;0.30;;;22.40;33.10;;;;;;5056805;28;20079;-75
2021/03/22 12:13:55;;;;;;;2.53;0.63;;;22.40;33.00;;;;;;5075688;28;20488;-75
2021/03/22 12:16:22;;;;;;;1.98;0.60;;;22.40;33.00;;;;;;5058253;28;20658;-75
2021/03/22 12:18:48;;;;;;;1.13;0.57;;;22.40;33.00;;;;;;5057730;28;20115;-75
2021/03/22 12:21:14;;;;;;;0.28;0.20;;;22.40;33.00;;;;;;5039770;28;20131;-75
2021/03/22 12:23:40;;;;;;;0.20;0.10;;;22.40;33.00;;;;;;5041357;28;20035;-75
2021/03/22 12:26:06;;;;;;;0.85;0.63;;;22.40;33.00;;;;;;5056032;28;20036;-75
2021/03/22 12:28:32;;;;;;;1.48;0.63;;;22.40;33.00;;;;;;5058609;28;20081;-75
2021/03/22 12:30:57;;;;;;;0.90;0.63;;;22.40;33.00;;;;;;5075051;28;20479;-75
2021/03/22 12:33:27;;;;;;;0.65;0.30;;;22.40;33.00;;;;;;5040895;28;20162;-75
2021/03/22 12:35:53;;;;;;;0.57;0.20;;;22.40;33.00;;;;;;5075506;28;20475;-75
2021/03/22 12:38:19;;;;;;;1.00;0.20;;;22.40;33.00;;;;;;5074099;28;20083;-75
2021/03/22 12:40:46;;;;;;;0.60;0.40;;;22.50;33.00;;;;;;5057272;28;20039;-75
2021/03/22 12:43:20;;;;;;;1.38;0.90;;;22.40;33.00;;;;;;5081121;28;20024;-75
2021/03/22 12:45:46;;;;;;;3.63;1.20;;;22.40;33.00;;;;;;5108772;28;20024;-75
2021/03/22 12:48:11;;;;;;;0.75;0.50;;;22.50;33.70;;;;;;5080456;28;20043;-74
2021/03/22 12:50:38;;;;;;;3.03;0.30;;;22.50;33.00;;;;;;5065789;28;20435;-75
2021/03/22 12:53:04;;;;;;;0.30;0.20;;;22.50;33.00;;;;;;5042222;28;20039;-75
2021/03/22 12:55:30;;;;;;;1.48;0.95;;;22.50;33.00;;;;;;5065912;28;20024;-76
2021/03/22 12:57:58;;;;;;;1.25;1.02;;;22.60;32.90;;;;;;5069013;28;20389;-76
2021/03/22 13:00:33;;;;;;;1.75;0.45;;;22.60;32.80;;;;;;5054030;28;20034;-76
2021/03/22 13:02:58;;;;;;;0.80;0.73;;;22.70;32.70;;;;;;5072910;28;20426;-76
2021/03/22 13:05:27;;;;;;;0.60;0.60;;;22.70;32.60;;;;;;5057436;28;20044;-75
2021/03/22 13:07:53;;;;;;;0.93;0.75;;;22.70;32.60;;;;;;5066889;28;20039;-76
2021/03/22 13:10:24;;;;;;;0.38;0.38;;;22.70;32.60;;;;;;5067125;28;20050;-76
2021/03/22 13:12:49;;;;;;;0.30;0.30;;;22.70;32.60;;;;;;5055290;28;20041;-76
2021/03/22 13:15:41;;;;;;;1.02;0.63;;;22.70;32.60;;;;;;5070386;28;20027;-76
2021/03/22 13:18:19;;;;;;;0.98;0.40;;;22.70;32.60;;;;;;5072923;28;20073;-76